sensor_id;sensor_type;location;lat;lon;timestamp;P1;durP1;ratioP1;P2;durP2;ratioP2
27939;SDS011;15275;51.716;14.324;2023-06-10T00:01:57;9.60;;;6.00;;
27939;SDS011;15275;51.716;14.324;2023-06-10T00:04:23;12.80;;;5.80;;
27939;SDS011;15275;51.716;14.324;2023-06-10T00:06:48;9.35;;;5.25;;
27939;SDS011;15275;51.716;14.324;2023-06-10T00:09:15;7.40;;;5.60;;
27939;SDS011;15275;51.716;14.324;2023-06-10T00:11:41;8.10;;;5.43;;
27939;SDS011;15275;51.716;14.324;2023-06-10T00:14:07;10.32;;;5.85;;
27939;SDS011;15275;51.716;14.324;2023-06-10T00:16:33;11.48;;;5.70;;
27939;SDS011;15275;51.716;14.324;2023-06-10T00:19:01;9.82;;;5.65;;
27939;SDS011;15275;51.716;14.324;2023-06-10T00:21:29;8.25;;;5.40;;
27939;SDS011;15275;51.716;14.324;2023-06-10T00:24:02;8.30;;;5.18;;
27939;SDS011;15275;51.716;14.324;2023-06-10T00:26:40;7.95;;;5.55;;
27939;SDS011;15275;51.716;14.324;2023-06-10T00:29:07;11.30;;;5.85;;
27939;SDS011;15275;51.716;14.324;2023-06-10T00:31:37;10.80;;;5.40;;
27939;SDS011;15275;51.716;14.324;2023-06-10T00:34:03;7.43;;;4.90;;
27939;SDS011;15275;51.716;14.324;2023-06-10T00:36:29;8.00;;;5.70;;
27939;SDS011;15275;51.716;14.324;2023-06-10T00:38:55;11.88;;;5.90;;
27939;SDS011;15275;51.716;14.324;2023-06-10T00:41:22;9.30;;;6.05;;
27939;SDS011;15275;51.716;14.324;2023-06-10T00:43:48;9.65;;;5.03;;
27939;SDS011;15275;51.716;14.324;2023-06-10T00:46:14;10.80;;;5.68;;
27939;SDS011;15275;51.716;14.324;2023-06-10T00:48:40;10.52;;;5.70;;
27939;SDS011;15275;51.716;14.324;2023-06-10T00:51:09;10.43;;;5.55;;
27939;SDS011;15275;51.716;14.324;2023-06-10T00:53:36;9.25;;;5.57;;
27939;SDS011;15275;51.716;14.324;2023-06-10T00:56:06;11.80;;;5.65;;
27939;SDS011;15275;51.716;14.324;2023-06-10T00:58:32;6.82;;;5.03;;
27939;SDS011;15275;51.716;14.324;2023-06-10T01:00:59;8.80;;;5.70;;
27939;SDS011;15275;51.716;14.324;2023-06-10T01:03:25;11.48;;;6.18;;
27939;SDS011;15275;51.716;14.324;2023-06-10T01:05:53;9.23;;;6.03;;
27939;SDS011;15275;51.716;14.324;2023-06-10T01:12:10;10.80;;;5.25;;
27939;SDS011;15275;51.716;14.324;2023-06-10T01:14:58;7.72;;;5.50;;
27939;SDS011;15275;51.716;14.324;2023-06-10T01:17:25;7.78;;;5.43;;
27939;SDS011;15275;51.716;14.324;2023-06-10T01:19:55;12.57;;;5.43;;
27939;SDS011;15275;51.716;14.324;2023-06-10T01:22:25;10.30;;;5.80;;
27939;SDS011;15275;51.716;14.324;2023-06-10T01:25:01;7.78;;;5.85;;
27939;SDS011;15275;51.716;14.324;2023-06-10T01:27:31;13.20;;;6.13;;
27939;SDS011;15275;51.716;14.324;2023-06-10T01:30:11;11.13;;;5.97;;
27939;SDS011;15275;51.716;14.324;2023-06-10T01:32:48;11.95;;;5.50;;
27939;SDS011;15275;51.716;14.324;2023-06-10T01:35:17;7.68;;;5.45;;
27939;SDS011;15275;51.716;14.324;2023-06-10T01:37:45;10.05;;;6.15;;
27939;SDS011;15275;51.716;14.324;2023-06-10T01:40:12;6.40;;;5.43;;
27939;SDS011;15275;51.716;14.324;2023-06-10T01:42:39;9.70;;;5.90;;
27939;SDS011;15275;51.716;14.324;2023-06-10T01:45:05;10.07;;;5.65;;
27939;SDS011;15275;51.716;14.324;2023-06-10T01:47:31;7.93;;;5.60;;
27939;SDS011;15275;51.716;14.324;2023-06-10T01:49:57;10.68;;;5.43;;
27939;SDS011;15275;51.716;14.324;2023-06-10T01:52:23;8.52;;;5.85;;
27939;SDS011;15275;51.716;14.324;2023-06-10T01:54:50;8.13;;;6.32;;
27939;SDS011;15275;51.716;14.324;2023-06-10T01:57:15;5.95;;;5.10;;
27939;SDS011;15275;51.716;14.324;2023-06-10T01:59:41;9.80;;;5.88;;
27939;SDS011;15275;51.716;14.324;2023-06-10T02:02:09;9.20;;;5.45;;
27939;SDS011;15275;51.716;14.324;2023-06-10T02:04:36;10.25;;;6.00;;
27939;SDS011;15275;51.716;14.324;2023-06-10T02:07:02;11.95;;;5.50;;
27939;SDS011;15275;51.716;14.324;2023-06-10T02:09:29;9.10;;;6.10;;
27939;SDS011;15275;51.716;14.324;2023-06-10T02:11:56;8.25;;;6.18;;
27939;SDS011;15275;51.716;14.324;2023-06-10T02:14:22;12.15;;;6.85;;
27939;SDS011;15275;51.716;14.324;2023-06-10T02:16:48;8.77;;;5.57;;
27939;SDS011;15275;51.716;14.324;2023-06-10T02:19:14;9.57;;;6.30;;
27939;SDS011;15275;51.716;14.324;2023-06-10T02:21:39;10.80;;;5.57;;
27939;SDS011;15275;51.716;14.324;2023-06-10T02:24:05;9.60;;;6.05;;
27939;SDS011;15275;51.716;14.324;2023-06-10T02:26:32;10.38;;;6.35;;
27939;SDS011;15275;51.716;14.324;2023-06-10T02:28:57;10.23;;;6.15;;
27939;SDS011;15275;51.716;14.324;2023-06-10T02:31:23;11.07;;;6.47;;
27939;SDS011;15275;51.716;14.324;2023-06-10T02:33:50;8.07;;;5.30;;
27939;SDS011;15275;51.716;14.324;2023-06-10T02:36:16;10.02;;;6.03;;
27939;SDS011;15275;51.716;14.324;2023-06-10T02:38:42;8.88;;;5.75;;
27939;SDS011;15275;51.716;14.324;2023-06-10T02:41:07;10.75;;;6.45;;
27939;SDS011;15275;51.716;14.324;2023-06-10T02:43:33;8.95;;;6.40;;
27939;SDS011;15275;51.716;14.324;2023-06-10T02:45:59;7.72;;;5.60;;
27939;SDS011;15275;51.716;14.324;2023-06-10T02:48:25;10.23;;;6.13;;
27939;SDS011;15275;51.716;14.324;2023-06-10T02:50:52;12.43;;;6.53;;
27939;SDS011;15275;51.716;14.324;2023-06-10T02:53:18;9.68;;;6.30;;
27939;SDS011;15275;51.716;14.324;2023-06-10T02:55:44;9.93;;;6.22;;
27939;SDS011;15275;51.716;14.324;2023-06-10T02:58:10;13.32;;;6.40;;
27939;SDS011;15275;51.716;14.324;2023-06-10T03:00:36;12.63;;;7.03;;
27939;SDS011;15275;51.716;14.324;2023-06-10T03:03:02;12.10;;;6.03;;
27939;SDS011;15275;51.716;14.324;2023-06-10T03:05:30;8.48;;;6.18;;
27939;SDS011;15275;51.716;14.324;2023-06-10T03:07:55;10.35;;;6.03;;
27939;SDS011;15275;51.716;14.324;2023-06-10T03:10:21;10.02;;;5.60;;
27939;SDS011;15275;51.716;14.324;2023-06-10T03:12:47;9.82;;;6.07;;
27939;SDS011;15275;51.716;14.324;2023-06-10T03:15:13;10.23;;;6.00;;
27939;SDS011;15275;51.716;14.324;2023-06-10T03:17:39;9.07;;;5.72;;
27939;SDS011;15275;51.716;14.324;2023-06-10T03:20:05;11.88;;;6.80;;
27939;SDS011;15275;51.716;14.324;2023-06-10T03:22:34;10.38;;;6.80;;
27939;SDS011;15275;51.716;14.324;2023-06-10T03:25:00;9.85;;;6.00;;
27939;SDS011;15275;51.716;14.324;2023-06-10T03:27:25;8.93;;;6.43;;
27939;SDS011;15275;51.716;14.324;2023-06-10T03:29:51;11.82;;;6.50;;
27939;SDS011;15275;51.716;14.324;2023-06-10T03:32:17;12.40;;;6.88;;
27939;SDS011;15275;51.716;14.324;2023-06-10T03:34:43;9.18;;;6.43;;
27939;SDS011;15275;51.716;14.324;2023-06-10T03:37:12;7.70;;;6.38;;
27939;SDS011;15275;51.716;14.324;2023-06-10T03:39:39;9.02;;;6.80;;
27939;SDS011;15275;51.716;14.324;2023-06-10T03:42:05;11.18;;;7.28;;
27939;SDS011;15275;51.716;14.324;2023-06-10T03:44:31;10.70;;;6.82;;
27939;SDS011;15275;51.716;14.324;2023-06-10T03:46:57;11.80;;;7.00;;
27939;SDS011;15275;51.716;14.324;2023-06-10T03:49:24;12.40;;;7.85;;
27939;SDS011;15275;51.716;14.324;2023-06-10T03:51:52;9.35;;;6.93;;
27939;SDS011;15275;51.716;14.324;2023-06-10T03:54:18;12.57;;;8.18;;
27939;SDS011;15275;51.716;14.324;2023-06-10T03:56:44;10.68;;;7.15;;
27939;SDS011;15275;51.716;14.324;2023-06-10T03:59:10;9.82;;;7.57;;
27939;SDS011;15275;51.716;14.324;2023-06-10T04:01:36;11.55;;;7.05;;
27939;SDS011;15275;51.716;14.324;2023-06-10T04:04:02;11.15;;;7.78;;
27939;SDS011;15275;51.716;14.324;2023-06-10T04:06:28;9.85;;;7.28;;
27939;SDS011;15275;51.716;14.324;2023-06-10T04:08:54;12.68;;;7.90;;
27939;SDS011;15275;51.716;14.324;2023-06-10T04:11:22;10.88;;;7.43;;
27939;SDS011;15275;51.716;14.324;2023-06-10T04:13:51;12.95;;;7.32;;
27939;SDS011;15275;51.716;14.324;2023-06-10T04:16:17;12.18;;;7.95;;
27939;SDS011;15275;51.716;14.324;2023-06-10T04:18:42;13.30;;;8.27;;
27939;SDS011;15275;51.716;14.324;2023-06-10T04:21:08;12.52;;;7.50;;
27939;SDS011;15275;51.716;14.324;2023-06-10T04:23:34;14.60;;;8.32;;
27939;SDS011;15275;51.716;14.324;2023-06-10T04:26:02;12.63;;;8.00;;
27939;SDS011;15275;51.716;14.324;2023-06-10T04:28:28;11.63;;;7.05;;
27939;SDS011;15275;51.716;14.324;2023-06-10T04:30:54;10.63;;;7.43;;
27939;SDS011;15275;51.716;14.324;2023-06-10T04:33:20;11.48;;;7.53;;
27939;SDS011;15275;51.716;14.324;2023-06-10T04:35:45;11.32;;;7.57;;
27939;SDS011;15275;51.716;14.324;2023-06-10T04:38:12;10.27;;;8.25;;
27939;SDS011;15275;51.716;14.324;2023-06-10T04:40:39;9.88;;;7.18;;
27939;SDS011;15275;51.716;14.324;2023-06-10T04:43:05;10.57;;;7.20;;
27939;SDS011;15275;51.716;14.324;2023-06-10T04:45:31;9.35;;;7.07;;
27939;SDS011;15275;51.716;14.324;2023-06-10T04:47:57;12.35;;;8.10;;
27939;SDS011;15275;51.716;14.324;2023-06-10T04:50:23;11.68;;;7.95;;
27939;SDS011;15275;51.716;14.324;2023-06-10T04:52:49;10.45;;;8.05;;
27939;SDS011;15275;51.716;14.324;2023-06-10T04:55:15;12.00;;;8.90;;
27939;SDS011;15275;51.716;14.324;2023-06-10T04:57:41;11.05;;;8.00;;
27939;SDS011;15275;51.716;14.324;2023-06-10T05:00:07;14.27;;;8.48;;
27939;SDS011;15275;51.716;14.324;2023-06-10T05:02:34;10.77;;;8.02;;
27939;SDS011;15275;51.716;14.324;2023-06-10T05:05:00;10.65;;;8.63;;
27939;SDS011;15275;51.716;14.324;2023-06-10T05:07:28;11.10;;;8.82;;
27939;SDS011;15275;51.716;14.324;2023-06-10T05:09:54;9.52;;;8.25;;
27939;SDS011;15275;51.716;14.324;2023-06-10T05:12:20;15.38;;;9.10;;
27939;SDS011;15275;51.716;14.324;2023-06-10T05:14:46;11.35;;;8.50;;
27939;SDS011;15275;51.716;14.324;2023-06-10T05:17:12;12.45;;;8.88;;
27939;SDS011;15275;51.716;14.324;2023-06-10T05:19:38;10.80;;;9.43;;
27939;SDS011;15275;51.716;14.324;2023-06-10T05:22:04;11.80;;;9.07;;
27939;SDS011;15275;51.716;14.324;2023-06-10T05:24:30;14.25;;;9.48;;
27939;SDS011;15275;51.716;14.324;2023-06-10T05:26:55;11.05;;;9.23;;
27939;SDS011;15275;51.716;14.324;2023-06-10T05:29:21;12.48;;;9.05;;
27939;SDS011;15275;51.716;14.324;2023-06-10T05:31:48;14.13;;;8.88;;
27939;SDS011;15275;51.716;14.324;2023-06-10T05:34:13;11.02;;;8.77;;
27939;SDS011;15275;51.716;14.324;2023-06-10T05:36:39;11.35;;;9.05;;
27939;SDS011;15275;51.716;14.324;2023-06-10T05:39:05;11.77;;;8.95;;
27939;SDS011;15275;51.716;14.324;2023-06-10T05:41:31;12.40;;;9.30;;
27939;SDS011;15275;51.716;14.324;2023-06-10T05:43:57;12.85;;;8.77;;
27939;SDS011;15275;51.716;14.324;2023-06-10T05:46:22;14.32;;;9.98;;
27939;SDS011;15275;51.716;14.324;2023-06-10T05:48:49;13.50;;;9.20;;
27939;SDS011;15275;51.716;14.324;2023-06-10T05:51:14;13.00;;;9.30;;
27939;SDS011;15275;51.716;14.324;2023-06-10T05:53:40;12.65;;;8.70;;
27939;SDS011;15275;51.716;14.324;2023-06-10T05:56:06;10.48;;;8.93;;
27939;SDS011;15275;51.716;14.324;2023-06-10T05:58:32;13.13;;;9.90;;
27939;SDS011;15275;51.716;14.324;2023-06-10T06:00:58;12.07;;;9.48;;
27939;SDS011;15275;51.716;14.324;2023-06-10T06:03:24;11.77;;;9.52;;
27939;SDS011;15275;51.716;14.324;2023-06-10T06:05:50;11.48;;;9.45;;
27939;SDS011;15275;51.716;14.324;2023-06-10T06:08:16;10.95;;;8.68;;
27939;SDS011;15275;51.716;14.324;2023-06-10T06:10:44;12.38;;;8.40;;
27939;SDS011;15275;51.716;14.324;2023-06-10T06:13:10;13.02;;;9.57;;
27939;SDS011;15275;51.716;14.324;2023-06-10T06:15:36;14.00;;;10.10;;
27939;SDS011;15275;51.716;14.324;2023-06-10T06:18:02;10.63;;;8.30;;
27939;SDS011;15275;51.716;14.324;2023-06-10T06:20:28;12.07;;;9.43;;
27939;SDS011;15275;51.716;14.324;2023-06-10T06:22:54;12.65;;;9.07;;
27939;SDS011;15275;51.716;14.324;2023-06-10T06:25:20;11.25;;;8.73;;
27939;SDS011;15275;51.716;14.324;2023-06-10T06:27:45;10.73;;;8.57;;
27939;SDS011;15275;51.716;14.324;2023-06-10T06:30:11;10.15;;;8.93;;
27939;SDS011;15275;51.716;14.324;2023-06-10T06:32:37;13.23;;;9.57;;
27939;SDS011;15275;51.716;14.324;2023-06-10T06:35:03;12.05;;;8.82;;
27939;SDS011;15275;51.716;14.324;2023-06-10T06:37:32;11.63;;;8.95;;
27939;SDS011;15275;51.716;14.324;2023-06-10T06:39:59;15.40;;;9.48;;
27939;SDS011;15275;51.716;14.324;2023-06-10T06:42:25;11.35;;;9.25;;
27939;SDS011;15275;51.716;14.324;2023-06-10T06:44:50;11.65;;;8.60;;
27939;SDS011;15275;51.716;14.324;2023-06-10T06:47:16;12.48;;;9.88;;
27939;SDS011;15275;51.716;14.324;2023-06-10T06:49:48;10.75;;;8.63;;
27939;SDS011;15275;51.716;14.324;2023-06-10T06:52:14;10.38;;;9.27;;
27939;SDS011;15275;51.716;14.324;2023-06-10T06:54:40;10.93;;;9.18;;
27939;SDS011;15275;51.716;14.324;2023-06-10T06:57:06;11.57;;;8.88;;
27939;SDS011;15275;51.716;14.324;2023-06-10T06:59:33;12.07;;;9.00;;
27939;SDS011;15275;51.716;14.324;2023-06-10T07:01:59;10.85;;;8.82;;
27939;SDS011;15275;51.716;14.324;2023-06-10T07:04:25;14.48;;;9.35;;
27939;SDS011;15275;51.716;14.324;2023-06-10T07:06:50;10.10;;;9.00;;
27939;SDS011;15275;51.716;14.324;2023-06-10T07:09:16;10.07;;;9.07;;
27939;SDS011;15275;51.716;14.324;2023-06-10T07:11:42;13.98;;;10.10;;
27939;SDS011;15275;51.716;14.324;2023-06-10T07:14:08;10.20;;;9.20;;
27939;SDS011;15275;51.716;14.324;2023-06-10T07:16:34;11.18;;;9.55;;
27939;SDS011;15275;51.716;14.324;2023-06-10T07:18:59;11.02;;;9.25;;
27939;SDS011;15275;51.716;14.324;2023-06-10T07:21:25;14.40;;;9.50;;
27939;SDS011;15275;51.716;14.324;2023-06-10T07:23:53;12.20;;;9.98;;
27939;SDS011;15275;51.716;14.324;2023-06-10T07:26:19;10.90;;;9.00;;
27939;SDS011;15275;51.716;14.324;2023-06-10T07:28:47;10.38;;;9.38;;
27939;SDS011;15275;51.716;14.324;2023-06-10T07:31:13;12.07;;;9.38;;
27939;SDS011;15275;51.716;14.324;2023-06-10T07:33:39;10.40;;;9.10;;
27939;SDS011;15275;51.716;14.324;2023-06-10T07:36:05;13.00;;;8.60;;
27939;SDS011;15275;51.716;14.324;2023-06-10T07:38:32;12.38;;;9.38;;
27939;SDS011;15275;51.716;14.324;2023-06-10T07:40:57;10.02;;;8.88;;
27939;SDS011;15275;51.716;14.324;2023-06-10T07:43:23;9.93;;;8.88;;
27939;SDS011;15275;51.716;14.324;2023-06-10T07:45:49;10.60;;;8.85;;
27939;SDS011;15275;51.716;14.324;2023-06-10T07:48:15;12.10;;;9.40;;
27939;SDS011;15275;51.716;14.324;2023-06-10T07:50:41;9.50;;;8.50;;
27939;SDS011;15275;51.716;14.324;2023-06-10T07:53:07;9.88;;;8.77;;
27939;SDS011;15275;51.716;14.324;2023-06-10T07:55:33;14.32;;;9.57;;
27939;SDS011;15275;51.716;14.324;2023-06-10T07:57:58;8.95;;;8.10;;
27939;SDS011;15275;51.716;14.324;2023-06-10T08:00:24;12.45;;;7.93;;
27939;SDS011;15275;51.716;14.324;2023-06-10T08:02:50;10.15;;;8.38;;
27939;SDS011;15275;51.716;14.324;2023-06-10T08:05:17;9.43;;;8.50;;
27939;SDS011;15275;51.716;14.324;2023-06-10T08:07:43;9.60;;;8.15;;
27939;SDS011;15275;51.716;14.324;2023-06-10T08:10:10;9.88;;;8.63;;
27939;SDS011;15275;51.716;14.324;2023-06-10T08:12:36;11.18;;;8.70;;
27939;SDS011;15275;51.716;14.324;2023-06-10T08:15:02;11.18;;;8.93;;
27939;SDS011;15275;51.716;14.324;2023-06-10T08:17:32;11.27;;;8.23;;
27939;SDS011;15275;51.716;14.324;2023-06-10T08:19:58;10.95;;;8.60;;
27939;SDS011;15275;51.716;14.324;2023-06-10T08:22:24;9.98;;;8.98;;
27939;SDS011;15275;51.716;14.324;2023-06-10T08:24:50;13.82;;;9.20;;
27939;SDS011;15275;51.716;14.324;2023-06-10T08:27:16;10.35;;;9.35;;
27939;SDS011;15275;51.716;14.324;2023-06-10T08:29:42;11.82;;;8.98;;
27939;SDS011;15275;51.716;14.324;2023-06-10T08:32:07;9.50;;;8.40;;
27939;SDS011;15275;51.716;14.324;2023-06-10T08:34:33;12.02;;;8.85;;
27939;SDS011;15275;51.716;14.324;2023-06-10T08:37:03;10.93;;;8.88;;
27939;SDS011;15275;51.716;14.324;2023-06-10T08:39:29;10.02;;;9.07;;
27939;SDS011;15275;51.716;14.324;2023-06-10T08:42:03;12.05;;;9.15;;
27939;SDS011;15275;51.716;14.324;2023-06-10T08:44:47;9.75;;;8.82;;
27939;SDS011;15275;51.716;14.324;2023-06-10T08:47:22;10.10;;;8.85;;
27939;SDS011;15275;51.716;14.324;2023-06-10T08:49:50;9.95;;;8.73;;
27939;SDS011;15275;51.716;14.324;2023-06-10T08:52:21;9.27;;;8.18;;
27939;SDS011;15275;51.716;14.324;2023-06-10T08:57:19;13.02;;;8.90;;
27939;SDS011;15275;51.716;14.324;2023-06-10T08:59:46;17.38;;;8.30;;
27939;SDS011;15275;51.716;14.324;2023-06-10T09:02:13;10.63;;;8.07;;
27939;SDS011;15275;51.716;14.324;2023-06-10T09:04:44;8.35;;;7.20;;
27939;SDS011;15275;51.716;14.324;2023-06-10T09:07:13;9.30;;;7.78;;
27939;SDS011;15275;51.716;14.324;2023-06-10T09:09:41;10.25;;;7.85;;
27939;SDS011;15275;51.716;14.324;2023-06-10T09:12:11;11.32;;;7.90;;
27939;SDS011;15275;51.716;14.324;2023-06-10T09:14:39;8.60;;;7.70;;
27939;SDS011;15275;51.716;14.324;2023-06-10T09:17:05;8.55;;;7.43;;
27939;SDS011;15275;51.716;14.324;2023-06-10T09:19:31;9.90;;;6.30;;
27939;SDS011;15275;51.716;14.324;2023-06-10T09:21:57;10.40;;;7.03;;
27939;SDS011;15275;51.716;14.324;2023-06-10T09:24:24;9.70;;;7.30;;
27939;SDS011;15275;51.716;14.324;2023-06-10T09:26:50;8.90;;;7.00;;
27939;SDS011;15275;51.716;14.324;2023-06-10T09:29:45;6.85;;;6.15;;
27939;SDS011;15275;51.716;14.324;2023-06-10T09:32:19;8.15;;;6.13;;
27939;SDS011;15275;51.716;14.324;2023-06-10T09:34:45;6.70;;;5.93;;
27939;SDS011;15275;51.716;14.324;2023-06-10T09:37:12;7.15;;;5.70;;
27939;SDS011;15275;51.716;14.324;2023-06-10T09:39:44;6.70;;;5.43;;
27939;SDS011;15275;51.716;14.324;2023-06-10T09:42:32;7.10;;;5.63;;
27939;SDS011;15275;51.716;14.324;2023-06-10T09:45:03;7.60;;;5.82;;
27939;SDS011;15275;51.716;14.324;2023-06-10T09:47:31;6.82;;;5.78;;
27939;SDS011;15275;51.716;14.324;2023-06-10T09:49:56;6.55;;;5.40;;
27939;SDS011;15275;51.716;14.324;2023-06-10T09:52:23;8.27;;;5.78;;
27939;SDS011;15275;51.716;14.324;2023-06-10T09:54:54;7.82;;;5.70;;
27939;SDS011;15275;51.716;14.324;2023-06-10T09:57:25;5.75;;;5.15;;
27939;SDS011;15275;51.716;14.324;2023-06-10T09:59:54;8.82;;;5.90;;
27939;SDS011;15275;51.716;14.324;2023-06-10T10:02:20;9.57;;;5.72;;
27939;SDS011;15275;51.716;14.324;2023-06-10T10:04:46;7.00;;;5.63;;
27939;SDS011;15275;51.716;14.324;2023-06-10T10:07:12;7.18;;;5.40;;
27939;SDS011;15275;51.716;14.324;2023-06-10T10:09:39;8.40;;;5.70;;
27939;SDS011;15275;51.716;14.324;2023-06-10T10:12:09;8.63;;;5.28;;
27939;SDS011;15275;51.716;14.324;2023-06-10T10:14:42;7.80;;;5.28;;
27939;SDS011;15275;51.716;14.324;2023-06-10T10:17:14;8.00;;;5.28;;
27939;SDS011;15275;51.716;14.324;2023-06-10T10:19:48;8.93;;;5.53;;
27939;SDS011;15275;51.716;14.324;2023-06-10T10:22:19;6.95;;;5.70;;
27939;SDS011;15275;51.716;14.324;2023-06-10T10:24:52;7.22;;;5.60;;
27939;SDS011;15275;51.716;14.324;2023-06-10T10:27:30;8.13;;;5.60;;
27939;SDS011;15275;51.716;14.324;2023-06-10T10:30:01;5.55;;;4.95;;
27939;SDS011;15275;51.716;14.324;2023-06-10T10:33:19;9.77;;;5.63;;
27939;SDS011;15275;51.716;14.324;2023-06-10T10:35:26;7.70;;;4.88;;
27939;SDS011;15275;51.716;14.324;2023-06-10T10:37:53;13.00;;;6.28;;
27939;SDS011;15275;51.716;14.324;2023-06-10T10:40:23;7.70;;;4.88;;
27939;SDS011;15275;51.716;14.324;2023-06-10T10:45:21;7.88;;;4.60;;
27939;SDS011;15275;51.716;14.324;2023-06-10T10:47:47;5.47;;;4.93;;
27939;SDS011;15275;51.716;14.324;2023-06-10T10:50:19;7.70;;;5.20;;
27939;SDS011;15275;51.716;14.324;2023-06-10T10:52:48;10.30;;;5.88;;
27939;SDS011;15275;51.716;14.324;2023-06-10T10:55:20;7.03;;;5.63;;
27939;SDS011;15275;51.716;14.324;2023-06-10T10:58:02;10.45;;;5.13;;
27939;SDS011;15275;51.716;14.324;2023-06-10T11:00:36;8.38;;;5.35;;
27939;SDS011;15275;51.716;14.324;2023-06-10T11:03:12;5.95;;;5.10;;
27939;SDS011;15275;51.716;14.324;2023-06-10T11:05:45;8.77;;;5.78;;
27939;SDS011;15275;51.716;14.324;2023-06-10T11:08:59;8.48;;;5.35;;
27939;SDS011;15275;51.716;14.324;2023-06-10T11:10:59;5.88;;;4.88;;
27939;SDS011;15275;51.716;14.324;2023-06-10T11:13:26;9.63;;;5.85;;
27939;SDS011;15275;51.716;14.324;2023-06-10T11:15:53;7.05;;;5.78;;
27939;SDS011;15275;51.716;14.324;2023-06-10T11:18:23;8.57;;;5.75;;
27939;SDS011;15275;51.716;14.324;2023-06-10T11:21:04;7.95;;;5.50;;
27939;SDS011;15275;51.716;14.324;2023-06-10T11:23:32;7.10;;;5.68;;
27939;SDS011;15275;51.716;14.324;2023-06-10T11:31:23;9.40;;;5.45;;
27939;SDS011;15275;51.716;14.324;2023-06-10T11:33:55;10.65;;;5.30;;
27939;SDS011;15275;51.716;14.324;2023-06-10T11:36:29;7.97;;;5.88;;
27939;SDS011;15275;51.716;14.324;2023-06-10T11:38:58;6.13;;;4.88;;
27939;SDS011;15275;51.716;14.324;2023-06-10T11:41:29;7.38;;;5.28;;
27939;SDS011;15275;51.716;14.324;2023-06-10T11:43:56;6.90;;;4.60;;
27939;SDS011;15275;51.716;14.324;2023-06-10T11:48:56;6.68;;;4.97;;
27939;SDS011;15275;51.716;14.324;2023-06-10T11:51:28;7.05;;;5.30;;
27939;SDS011;15275;51.716;14.324;2023-06-10T11:53:59;9.90;;;5.07;;
27939;SDS011;15275;51.716;14.324;2023-06-10T11:56:25;5.10;;;4.60;;
27939;SDS011;15275;51.716;14.324;2023-06-10T11:58:53;6.03;;;4.95;;
27939;SDS011;15275;51.716;14.324;2023-06-10T12:01:22;12.07;;;5.10;;
27939;SDS011;15275;51.716;14.324;2023-06-10T12:04:24;6.93;;;4.97;;
27939;SDS011;15275;51.716;14.324;2023-06-10T12:06:50;7.47;;;5.07;;
27939;SDS011;15275;51.716;14.324;2023-06-10T12:09:27;6.25;;;5.22;;
27939;SDS011;15275;51.716;14.324;2023-06-10T12:17:15;8.38;;;5.55;;
27939;SDS011;15275;51.716;14.324;2023-06-10T12:19:40;7.40;;;4.90;;
27939;SDS011;15275;51.716;14.324;2023-06-10T12:22:06;10.30;;;4.82;;
27939;SDS011;15275;51.716;14.324;2023-06-10T12:24:32;8.15;;;5.22;;
27939;SDS011;15275;51.716;14.324;2023-06-10T12:26:58;6.78;;;5.20;;
27939;SDS011;15275;51.716;14.324;2023-06-10T12:29:24;7.25;;;5.15;;
27939;SDS011;15275;51.716;14.324;2023-06-10T12:34:33;7.13;;;4.72;;
27939;SDS011;15275;51.716;14.324;2023-06-10T12:37:04;7.13;;;4.80;;
27939;SDS011;15275;51.716;14.324;2023-06-10T12:39:38;8.02;;;4.90;;
27939;SDS011;15275;51.716;14.324;2023-06-10T12:42:04;7.65;;;4.60;;
27939;SDS011;15275;51.716;14.324;2023-06-10T12:44:34;7.63;;;4.88;;
27939;SDS011;15275;51.716;14.324;2023-06-10T12:47:08;5.93;;;5.25;;
27939;SDS011;15275;51.716;14.324;2023-06-10T12:49:37;7.00;;;5.70;;
27939;SDS011;15275;51.716;14.324;2023-06-10T12:52:03;7.90;;;5.45;;
27939;SDS011;15275;51.716;14.324;2023-06-10T12:54:30;6.10;;;5.30;;
27939;SDS011;15275;51.716;14.324;2023-06-10T12:56:57;8.88;;;4.93;;
27939;SDS011;15275;51.716;14.324;2023-06-10T12:59:23;7.28;;;5.47;;
27939;SDS011;15275;51.716;14.324;2023-06-10T13:01:52;6.05;;;5.05;;
27939;SDS011;15275;51.716;14.324;2023-06-10T13:04:19;6.55;;;5.78;;
27939;SDS011;15275;51.716;14.324;2023-06-10T13:06:46;11.82;;;6.32;;
27939;SDS011;15275;51.716;14.324;2023-06-10T13:09:14;6.97;;;6.13;;
27939;SDS011;15275;51.716;14.324;2023-06-10T13:11:40;7.47;;;5.43;;
27939;SDS011;15275;51.716;14.324;2023-06-10T13:14:07;9.82;;;5.75;;
27939;SDS011;15275;51.716;14.324;2023-06-10T13:16:35;8.32;;;5.85;;
27939;SDS011;15275;51.716;14.324;2023-06-10T13:19:03;8.38;;;5.68;;
27939;SDS011;15275;51.716;14.324;2023-06-10T13:21:30;12.02;;;6.60;;
27939;SDS011;15275;51.716;14.324;2023-06-10T13:23:59;6.68;;;5.93;;
27939;SDS011;15275;51.716;14.324;2023-06-10T13:26:25;7.13;;;5.80;;
27939;SDS011;15275;51.716;14.324;2023-06-10T13:28:51;7.90;;;6.30;;
27939;SDS011;15275;51.716;14.324;2023-06-10T13:31:17;8.02;;;6.13;;
27939;SDS011;15275;51.716;14.324;2023-06-10T13:33:45;9.38;;;6.00;;
27939;SDS011;15275;51.716;14.324;2023-06-10T13:36:12;7.30;;;5.85;;
27939;SDS011;15275;51.716;14.324;2023-06-10T13:38:38;9.73;;;4.80;;
27939;SDS011;15275;51.716;14.324;2023-06-10T13:41:03;5.13;;;3.33;;
27939;SDS011;15275;51.716;14.324;2023-06-10T13:43:29;6.90;;;3.95;;
27939;SDS011;15275;51.716;14.324;2023-06-10T13:45:55;4.28;;;3.42;;
27939;SDS011;15275;51.716;14.324;2023-06-10T13:48:21;4.43;;;3.65;;
27939;SDS011;15275;51.716;14.324;2023-06-10T13:50:47;7.63;;;3.45;;
27939;SDS011;15275;51.716;14.324;2023-06-10T13:53:12;7.28;;;3.10;;
27939;SDS011;15275;51.716;14.324;2023-06-10T13:55:38;5.13;;;3.03;;
27939;SDS011;15275;51.716;14.324;2023-06-10T13:58:04;5.85;;;3.35;;
27939;SDS011;15275;51.716;14.324;2023-06-10T14:00:30;4.43;;;3.60;;
27939;SDS011;15275;51.716;14.324;2023-06-10T14:02:56;3.95;;;3.55;;
27939;SDS011;15275;51.716;14.324;2023-06-10T14:05:22;7.45;;;3.97;;
27939;SDS011;15275;51.716;14.324;2023-06-10T14:07:48;4.85;;;4.07;;
27939;SDS011;15275;51.716;14.324;2023-06-10T14:10:14;6.93;;;4.47;;
27939;SDS011;15275;51.716;14.324;2023-06-10T14:12:39;5.05;;;4.03;;
27939;SDS011;15275;51.716;14.324;2023-06-10T14:15:05;6.72;;;4.28;;
27939;SDS011;15275;51.716;14.324;2023-06-10T14:17:32;7.53;;;4.40;;
27939;SDS011;15275;51.716;14.324;2023-06-10T14:19:58;5.07;;;3.92;;
27939;SDS011;15275;51.716;14.324;2023-06-10T14:22:23;6.28;;;4.25;;
27939;SDS011;15275;51.716;14.324;2023-06-10T14:24:49;5.55;;;4.18;;
27939;SDS011;15275;51.716;14.324;2023-06-10T14:27:15;4.80;;;4.30;;
27939;SDS011;15275;51.716;14.324;2023-06-10T14:29:41;5.53;;;4.50;;
27939;SDS011;15275;51.716;14.324;2023-06-10T14:32:07;8.45;;;5.00;;
27939;SDS011;15275;51.716;14.324;2023-06-10T14:34:32;6.47;;;4.95;;
27939;SDS011;15275;51.716;14.324;2023-06-10T14:37:01;7.38;;;4.65;;
27939;SDS011;15275;51.716;14.324;2023-06-10T14:39:32;7.18;;;4.72;;
27939;SDS011;15275;51.716;14.324;2023-06-10T14:41:58;8.32;;;4.50;;
27939;SDS011;15275;51.716;14.324;2023-06-10T14:44:24;12.25;;;5.55;;
27939;SDS011;15275;51.716;14.324;2023-06-10T14:46:50;6.45;;;4.63;;
27939;SDS011;15275;51.716;14.324;2023-06-10T14:49:15;10.00;;;5.10;;
27939;SDS011;15275;51.716;14.324;2023-06-10T14:51:41;6.45;;;5.05;;
27939;SDS011;15275;51.716;14.324;2023-06-10T14:54:07;7.85;;;5.18;;
27939;SDS011;15275;51.716;14.324;2023-06-10T14:56:33;6.75;;;5.00;;